Zylks, Louisiana
Current Conditions -  °F | °C
As of 8:53 AM on Wednesday 22 Oct 2014 (Local Time) from KTXK Reporting Station
Clear Clear  
Wind Chill: 58°   Ceiling: Unl
Heat Index: 58°   Visibility: 7mi
Dew Point: 55°   Wind: 8mph
Humidity: 90%   Direction: 50°NE
Pressure: 30.18"   Gusts: NA
Location:  32.9696°N, 93.9801°W
Report Text: KTXK 221353Z 05007KT 7SM CLR 14/13 A3018 RMK AO2 SLP219 T01440128
Loading
Personal Weather Stations






























Interactive Weather Map
Tropical Storm Tracking
New forecast layout! Learn more

10-Day Weather Forecast

Advertisements
Track Severe Weather on mobile